sensor_id;sensor_type;location;lat;lon;timestamp;pressure;altitude;pressure_sealevel;temperature;humidity
13968;BME280;39536;52.198;9.920;2023-03-04T00:00:39;101382.41;;;3.42;100.00
13968;BME280;39536;52.198;9.920;2023-03-04T00:03:09;101374.69;;;3.41;100.00
13968;BME280;39536;52.198;9.920;2023-03-04T00:05:36;101379.03;;;3.45;100.00
13968;BME280;39536;52.198;9.920;2023-03-04T00:08:02;101377.25;;;3.39;100.00
13968;BME280;39536;52.198;9.920;2023-03-04T00:10:29;101379.81;;;3.39;100.00
13968;BME280;39536;52.198;9.920;2023-03-04T00:12:56;101372.97;;;3.40;100.00
13968;BME280;39536;52.198;9.920;2023-03-04T00:15:23;101378.13;;;3.40;100.00
13968;BME280;39536;52.198;9.920;2023-03-04T00:17:49;101362.69;;;3.40;100.00
13968;BME280;39536;52.198;9.920;2023-03-04T00:20:16;101385.84;;;3.41;100.00
13968;BME280;39536;52.198;9.920;2023-03-04T00:22:42;101382.50;;;3.47;100.00
13968;BME280;39536;52.198;9.920;2023-03-04T00:25:09;101384.16;;;3.43;100.00
13968;BME280;39536;52.198;9.920;2023-03-04T00:27:35;101358.34;;;3.37;100.00
13968;BME280;39536;52.198;9.920;2023-03-04T00:30:04;101379.81;;;3.39;100.00
13968;BME280;39536;52.198;9.920;2023-03-04T00:32:31;101378.13;;;3.41;100.00
13968;BME280;39536;52.198;9.920;2023-03-04T00:34:57;101382.41;;;3.42;100.00
13968;BME280;39536;52.198;9.920;2023-03-04T00:37:23;101377.31;;;3.45;100.00
13968;BME280;39536;52.198;9.920;2023-03-04T00:39:50;101370.44;;;3.44;100.00
13968;BME280;39536;52.198;9.920;2023-03-04T00:42:16;101373.91;;;3.46;100.00
13968;BME280;39536;52.198;9.920;2023-03-04T00:44:43;101368.75;;;3.46;100.00
13968;BME280;39536;52.198;9.920;2023-03-04T00:47:10;101357.56;;;3.44;100.00
13968;BME280;39536;52.198;9.920;2023-03-04T00:49:37;101370.50;;;3.49;100.00
13968;BME280;39536;52.198;9.920;2023-03-04T00:52:03;101364.47;;;3.48;100.00
13968;BME280;39536;52.198;9.920;2023-03-04T00:54:30;101367.09;;;3.53;100.00
13968;BME280;39536;52.198;9.920;2023-03-04T00:56:56;101347.34;;;3.52;100.00
13968;BME280;39536;52.198;9.920;2023-03-04T00:59:23;101369.66;;;3.53;100.00
13968;BME280;39536;52.198;9.920;2023-03-04T01:01:49;101366.25;;;3.53;100.00
13968;BME280;39536;52.198;9.920;2023-03-04T01:04:17;101364.47;;;3.47;100.00
13968;BME280;39536;52.198;9.920;2023-03-04T01:06:43;101356.72;;;3.48;100.00
13968;BME280;39536;52.198;9.920;2023-03-04T01:09:10;101354.25;;;3.58;100.00
13968;BME280;39536;52.198;9.920;2023-03-04T01:11:36;101355.13;;;3.58;100.00
13968;BME280;39536;52.198;9.920;2023-03-04T01:14:02;101363.66;;;3.54;100.00
13968;BME280;39536;52.198;9.920;2023-03-04T01:16:29;101356.00;;;3.60;100.00
13968;BME280;39536;52.198;9.920;2023-03-04T01:18:55;101351.66;;;3.58;100.00
13968;BME280;39536;52.198;9.920;2023-03-04T01:21:23;101354.28;;;3.59;100.00
13968;BME280;39536;52.198;9.920;2023-03-04T01:23:49;101344.78;;;3.52;100.00
13968;BME280;39536;52.198;9.920;2023-03-04T01:26:16;101341.38;;;3.56;100.00
13968;BME280;39536;52.198;9.920;2023-03-04T01:28:42;101339.69;;;3.58;100.00
13968;BME280;39536;52.198;9.920;2023-03-04T01:31:08;101337.94;;;3.57;100.00
13968;BME280;39536;52.198;9.920;2023-03-04T01:33:35;101331.09;;;3.61;100.00
13968;BME280;39536;52.198;9.920;2023-03-04T01:36:01;101328.59;;;3.68;100.00
13968;BME280;39536;52.198;9.920;2023-03-04T01:38:29;101334.56;;;3.67;100.00
13968;BME280;39536;52.198;9.920;2023-03-04T01:40:55;101323.41;;;3.67;100.00
13968;BME280;39536;52.198;9.920;2023-03-04T01:43:23;101313.97;;;3.66;100.00
13968;BME280;39536;52.198;9.920;2023-03-04T01:45:51;101318.25;;;3.64;100.00
13968;BME280;39536;52.198;9.920;2023-03-04T01:48:22;101319.97;;;3.65;100.00
13968;BME280;39536;52.198;9.920;2023-03-04T01:50:50;101315.72;;;3.70;100.00
13968;BME280;39536;52.198;9.920;2023-03-04T01:53:19;101306.28;;;3.69;100.00
13968;BME280;39536;52.198;9.920;2023-03-04T01:55:47;101301.13;;;3.69;100.00
13968;BME280;39536;52.198;9.920;2023-03-04T01:58:14;101296.81;;;3.68;100.00
13968;BME280;39536;52.198;9.920;2023-03-04T02:00:40;101291.66;;;3.69;100.00
13968;BME280;39536;52.198;9.920;2023-03-04T02:03:10;101284.78;;;3.65;100.00
13968;BME280;39536;52.198;9.920;2023-03-04T02:05:38;101283.97;;;3.71;100.00
13968;BME280;39536;52.198;9.920;2023-03-04T02:08:05;101287.41;;;3.73;100.00
13968;BME280;39536;52.198;9.920;2023-03-04T02:10:33;101277.09;;;3.72;100.00
13968;BME280;39536;52.198;9.920;2023-03-04T02:13:02;101276.25;;;3.74;100.00
13968;BME280;39536;52.198;9.920;2023-03-04T02:15:29;101275.41;;;3.77;100.00
13968;BME280;39536;52.198;9.920;2023-03-04T02:17:55;101273.69;;;3.79;100.00
13968;BME280;39536;52.198;9.920;2023-03-04T02:20:30;101276.28;;;3.79;100.00
13968;BME280;39536;52.198;9.920;2023-03-04T02:23:03;101262.53;;;3.80;100.00
13968;BME280;39536;52.198;9.920;2023-03-04T02:25:35;101265.16;;;3.86;100.00
13968;BME280;39536;52.198;9.920;2023-03-04T02:28:05;101263.44;;;3.85;100.00
13968;BME280;39536;52.198;9.920;2023-03-04T02:30:32;101260.91;;;3.89;100.00
13968;BME280;39536;52.198;9.920;2023-03-04T02:32:59;101260.00;;;3.86;100.00
13968;BME280;39536;52.198;9.920;2023-03-04T02:35:26;101254.84;;;3.86;100.00
13968;BME280;39536;52.198;9.920;2023-03-04T02:37:52;101256.63;;;3.90;100.00
13968;BME280;39536;52.198;9.920;2023-03-04T02:40:22;101260.03;;;3.92;100.00
13968;BME280;39536;52.198;9.920;2023-03-04T02:42:49;101241.16;;;3.93;100.00
13968;BME280;39536;52.198;9.920;2023-03-04T02:45:39;101257.53;;;4.03;100.00
13968;BME280;39536;52.198;9.920;2023-03-04T02:48:07;101257.50;;;3.98;100.00
13968;BME280;39536;52.198;9.920;2023-03-04T02:50:35;101252.38;;;4.00;100.00
13968;BME280;39536;52.198;9.920;2023-03-04T02:53:03;101251.56;;;4.05;100.00
13968;BME280;39536;52.198;9.920;2023-03-04T02:55:29;101265.28;;;4.03;100.00
13968;BME280;39536;52.198;9.920;2023-03-04T02:57:56;101256.66;;;4.01;100.00
13968;BME280;39536;52.198;9.920;2023-03-04T03:00:23;101258.41;;;4.03;100.00
13968;BME280;39536;52.198;9.920;2023-03-04T03:02:51;101242.09;;;4.06;100.00
13968;BME280;39536;52.198;9.920;2023-03-04T03:05:18;101250.66;;;4.00;100.00
13968;BME280;39536;52.198;9.920;2023-03-04T03:07:44;101225.72;;;4.01;100.00
13968;BME280;39536;52.198;9.920;2023-03-04T03:10:11;101248.09;;;4.08;100.00
13968;BME280;39536;52.198;9.920;2023-03-04T03:12:37;101252.41;;;4.07;100.00
13968;BME280;39536;52.198;9.920;2023-03-04T03:15:05;101248.97;;;4.07;100.00
13968;BME280;39536;52.198;9.920;2023-03-04T03:17:32;101245.53;;;4.08;100.00
13968;BME280;39536;52.198;9.920;2023-03-04T03:20:00;101247.28;;;4.09;100.00
13968;BME280;39536;52.198;9.920;2023-03-04T03:22:26;101242.09;;;4.06;100.00
13968;BME280;39536;52.198;9.920;2023-03-04T03:24:53;101227.47;;;4.05;100.00
13968;BME280;39536;52.198;9.920;2023-03-04T03:27:19;101243.78;;;4.04;100.00
13968;BME280;39536;52.198;9.920;2023-03-04T03:29:46;101235.19;;;4.05;100.00
13968;BME280;39536;52.198;9.920;2023-03-04T03:32:12;101226.59;;;4.00;100.00
13968;BME280;39536;52.198;9.920;2023-03-04T03:34:39;101226.63;;;4.06;100.00
13968;BME280;39536;52.198;9.920;2023-03-04T03:37:06;101240.38;;;4.08;100.00
13968;BME280;39536;52.198;9.920;2023-03-04T03:39:33;101232.63;;;4.06;100.00
13968;BME280;39536;52.198;9.920;2023-03-04T03:41:59;101232.63;;;4.03;100.00
13968;BME280;39536;52.198;9.920;2023-03-04T03:44:26;101237.75;;;4.02;100.00
13968;BME280;39536;52.198;9.920;2023-03-04T03:46:52;101231.75;;;4.04;100.00
13968;BME280;39536;52.198;9.920;2023-03-04T03:49:19;101232.63;;;4.05;100.00
13968;BME280;39536;52.198;9.920;2023-03-04T03:51:45;101220.59;;;3.99;100.00
13968;BME280;39536;52.198;9.920;2023-03-04T03:54:13;101222.28;;;4.02;100.00
13968;BME280;39536;52.198;9.920;2023-03-04T03:56:40;101219.69;;;3.96;100.00
13968;BME280;39536;52.198;9.920;2023-03-04T03:59:06;101229.16;;;3.97;100.00
13968;BME280;39536;52.198;9.920;2023-03-04T04:01:32;101223.16;;;3.99;100.00
13968;BME280;39536;52.198;9.920;2023-03-04T04:03:59;101224.84;;;3.94;100.00
13968;BME280;39536;52.198;9.920;2023-03-04T04:06:26;101228.25;;;3.91;100.00
13968;BME280;39536;52.198;9.920;2023-03-04T04:08:52;101225.69;;;3.93;100.00
13968;BME280;39536;52.198;9.920;2023-03-04T04:11:20;101224.84;;;3.96;100.00
13968;BME280;39536;52.198;9.920;2023-03-04T04:13:47;101215.38;;;3.94;100.00
13968;BME280;39536;52.198;9.920;2023-03-04T04:16:13;101214.53;;;3.92;100.00
13968;BME280;39536;52.198;9.920;2023-03-04T04:18:40;101215.41;;;3.96;100.00
13968;BME280;39536;52.198;9.920;2023-03-04T04:21:06;101223.97;;;3.93;100.00
13968;BME280;39536;52.198;9.920;2023-03-04T04:23:33;101219.69;;;3.92;100.00
13968;BME280;39536;52.198;9.920;2023-03-04T04:25:59;101202.47;;;3.91;100.00
13968;BME280;39536;52.198;9.920;2023-03-04T04:28:27;101210.22;;;3.91;100.00
13968;BME280;39536;52.198;9.920;2023-03-04T04:30:53;101208.50;;;3.90;100.00
13968;BME280;39536;52.198;9.920;2023-03-04T04:33:20;101204.22;;;3.92;100.00
13968;BME280;39536;52.198;9.920;2023-03-04T04:35:46;101221.41;;;3.93;100.00
13968;BME280;39536;52.198;9.920;2023-03-04T04:38:13;101207.66;;;3.93;100.00
13968;BME280;39536;52.198;9.920;2023-03-04T04:40:39;101208.47;;;3.87;100.00
13968;BME280;39536;52.198;9.920;2023-03-04T04:43:07;101205.03;;;3.84;100.00
13968;BME280;39536;52.198;9.920;2023-03-04T04:45:35;101206.78;;;3.86;100.00
13968;BME280;39536;52.198;9.920;2023-03-04T04:48:02;101185.25;;;3.83;100.00
13968;BME280;39536;52.198;9.920;2023-03-04T04:50:28;101213.56;;;3.75;100.00
13968;BME280;39536;52.198;9.920;2023-03-04T04:52:55;101205.00;;;3.78;100.00
13968;BME280;39536;52.198;9.920;2023-03-04T04:55:21;101208.38;;;3.74;100.00
13968;BME280;39536;52.198;9.920;2023-03-04T04:57:47;101204.94;;;3.70;100.00
13968;BME280;39536;52.198;9.920;2023-03-04T05:00:14;101222.09;;;3.65;100.00
13968;BME280;39536;52.198;9.920;2023-03-04T05:02:44;101216.94;;;3.65;100.00
13968;BME280;39536;52.198;9.920;2023-03-04T05:05:10;101207.50;;;3.65;100.00
13968;BME280;39536;52.198;9.920;2023-03-04T05:07:37;101203.19;;;3.63;100.00
13968;BME280;39536;52.198;9.920;2023-03-04T05:10:04;101202.34;;;3.67;100.00
13968;BME280;39536;52.198;9.920;2023-03-04T05:12:30;101192.06;;;3.68;100.00
13968;BME280;39536;52.198;9.920;2023-03-04T05:14:57;101198.91;;;3.65;100.00
13968;BME280;39536;52.198;9.920;2023-03-04T05:17:23;101181.75;;;3.70;100.00
13968;BME280;39536;52.198;9.920;2023-03-04T05:19:51;101180.88;;;3.65;100.00
13968;BME280;39536;52.198;9.920;2023-03-04T05:22:17;101187.75;;;3.66;100.00
13968;BME280;39536;52.198;9.920;2023-03-04T05:24:43;101193.75;;;3.65;100.00
13968;BME280;39536;52.198;9.920;2023-03-04T05:27:10;101191.16;;;3.62;100.00
13968;BME280;39536;52.198;9.920;2023-03-04T05:29:36;101181.69;;;3.59;100.00
13968;BME280;39536;52.198;9.920;2023-03-04T05:32:03;101178.28;;;3.62;100.00
13968;BME280;39536;52.198;9.920;2023-03-04T05:34:30;101187.69;;;3.61;100.00
13968;BME280;39536;52.198;9.920;2023-03-04T05:36:58;101176.56;;;3.65;100.00
13968;BME280;39536;52.198;9.920;2023-03-04T05:39:24;101183.44;;;3.63;100.00
13968;BME280;39536;52.198;9.920;2023-03-04T05:41:50;101173.16;;;3.65;100.00
13968;BME280;39536;52.198;9.920;2023-03-04T05:44:17;101190.28;;;3.63;100.00
13968;BME280;39536;52.198;9.920;2023-03-04T05:46:43;101176.53;;;3.61;100.00
13968;BME280;39536;52.198;9.920;2023-03-04T05:49:10;101187.72;;;3.67;100.00
13968;BME280;39536;52.198;9.920;2023-03-04T05:51:36;101180.84;;;3.63;100.00
13968;BME280;39536;52.198;9.920;2023-03-04T05:54:04;101179.16;;;3.65;100.00
13968;BME280;39536;52.198;9.920;2023-03-04T05:56:31;101179.13;;;3.64;100.00
13968;BME280;39536;52.198;9.920;2023-03-04T05:58:57;101180.84;;;3.63;100.00
13968;BME280;39536;52.198;9.920;2023-03-04T06:01:24;101181.72;;;3.67;100.00
13968;BME280;39536;52.198;9.920;2023-03-04T06:03:51;101185.19;;;3.70;100.00
13968;BME280;39536;52.198;9.920;2023-03-04T06:06:17;101188.66;;;3.74;100.00
13968;BME280;39536;52.198;9.920;2023-03-04T06:08:44;101177.44;;;3.70;100.00
13968;BME280;39536;52.198;9.920;2023-03-04T06:11:11;101176.59;;;3.70;100.00
13968;BME280;39536;52.198;9.920;2023-03-04T06:13:38;101183.50;;;3.74;100.00
13968;BME280;39536;52.198;9.920;2023-03-04T06:16:05;101182.59;;;3.67;100.00
13968;BME280;39536;52.198;9.920;2023-03-04T06:18:33;101176.59;;;3.70;100.00
13968;BME280;39536;52.198;9.920;2023-03-04T06:21:00;101177.44;;;3.66;100.00
13968;BME280;39536;52.198;9.920;2023-03-04T06:23:28;101187.72;;;3.67;100.00
13968;BME280;39536;52.198;9.920;2023-03-04T06:25:59;101180.88;;;3.65;100.00
13968;BME280;39536;52.198;9.920;2023-03-04T06:28:27;101193.75;;;3.65;100.00
13968;BME280;39536;52.198;9.920;2023-03-04T06:30:55;101189.41;;;3.61;100.00
13968;BME280;39536;52.198;9.920;2023-03-04T06:33:21;101194.59;;;3.62;100.00
13968;BME280;39536;52.198;9.920;2023-03-04T06:35:53;101196.38;;;3.73;100.00
13968;BME280;39536;52.198;9.920;2023-03-04T06:38:19;101195.53;;;3.75;100.00
13968;BME280;39536;52.198;9.920;2023-03-04T06:40:46;101188.63;;;3.69;100.00
13968;BME280;39536;52.198;9.920;2023-03-04T06:43:12;101189.50;;;3.72;100.00
13968;BME280;39536;52.198;9.920;2023-03-04T06:45:40;101195.53;;;3.75;100.00
13968;BME280;39536;52.198;9.920;2023-03-04T06:48:06;101192.94;;;3.77;100.00
13968;BME280;39536;52.198;9.920;2023-03-04T06:50:33;101201.53;;;3.74;100.00
13968;BME280;39536;52.198;9.920;2023-03-04T06:52:59;101200.66;;;3.77;100.00
13968;BME280;39536;52.198;9.920;2023-03-04T06:55:26;101193.84;;;3.77;100.00
13968;BME280;39536;52.198;9.920;2023-03-04T06:57:52;101183.53;;;3.82;100.00
13968;BME280;39536;52.198;9.920;2023-03-04T07:00:20;101192.09;;;3.76;100.00
13968;BME280;39536;52.198;9.920;2023-03-04T07:02:49;101194.69;;;3.82;100.00
13968;BME280;39536;52.198;9.920;2023-03-04T07:05:16;101189.56;;;3.84;100.00
13968;BME280;39536;52.198;9.920;2023-03-04T07:07:42;101193.00;;;3.86;100.00
13968;BME280;39536;52.198;9.920;2023-03-04T07:10:10;101183.59;;;3.94;100.00
13968;BME280;39536;52.198;9.920;2023-03-04T07:12:36;101173.31;;;3.97;100.00
13968;BME280;39536;52.198;9.920;2023-03-04T07:15:03;101179.34;;;4.01;100.00
13968;BME280;39536;52.198;9.920;2023-03-04T07:17:30;101180.19;;;4.00;100.00
13968;BME280;39536;52.198;9.920;2023-03-04T07:19:57;101187.09;;;4.04;100.00
13968;BME280;39536;52.198;9.920;2023-03-04T07:22:24;101176.78;;;4.04;100.00
13968;BME280;39536;52.198;9.920;2023-03-04T07:24:50;101182.75;;;4.01;100.00
13968;BME280;39536;52.198;9.920;2023-03-04T07:27:17;101176.78;;;4.07;100.00
13968;BME280;39536;52.198;9.920;2023-03-04T07:29:43;101193.97;;;4.11;100.00
13968;BME280;39536;52.198;9.920;2023-03-04T07:32:10;101188.00;;;4.12;100.00
13968;BME280;39536;52.198;9.920;2023-03-04T07:34:36;101175.97;;;4.20;100.00
13968;BME280;39536;52.198;9.920;2023-03-04T07:37:04;101194.03;;;4.20;100.00
13968;BME280;39536;52.198;9.920;2023-03-04T07:39:30;101195.75;;;4.21;100.00
13968;BME280;39536;52.198;9.920;2023-03-04T07:41:57;101187.16;;;4.27;100.00
13968;BME280;39536;52.198;9.920;2023-03-04T07:44:23;101189.75;;;4.22;100.00
13968;BME280;39536;52.198;9.920;2023-03-04T07:46:50;101183.72;;;4.26;100.00
13968;BME280;39536;52.198;9.920;2023-03-04T07:49:16;101195.75;;;4.21;100.00
13968;BME280;39536;52.198;9.920;2023-03-04T07:51:43;101194.03;;;4.22;100.00
13968;BME280;39536;52.198;9.920;2023-03-04T07:54:11;101182.88;;;4.26;100.00
13968;BME280;39536;52.198;9.920;2023-03-04T07:56:37;101195.81;;;4.36;100.00
13968;BME280;39536;52.198;9.920;2023-03-04T07:59:04;101189.81;;;4.42;100.00
13968;BME280;39536;52.198;9.920;2023-03-04T08:01:32;101180.38;;;4.46;100.00
13968;BME280;39536;52.198;9.920;2023-03-04T08:03:59;101175.22;;;4.50;100.00
13968;BME280;39536;52.198;9.920;2023-03-04T08:06:27;101178.66;;;4.54;100.00
13968;BME280;39536;52.198;9.920;2023-03-04T08:08:56;101176.97;;;4.62;100.00
13968;BME280;39536;52.198;9.920;2023-03-04T08:11:25;101183.81;;;4.48;100.00
13968;BME280;39536;52.198;9.920;2023-03-04T08:13:51;101182.06;;;4.39;100.00
13968;BME280;39536;52.198;9.920;2023-03-04T08:16:19;101185.50;;;4.30;100.00
13968;BME280;39536;52.198;9.920;2023-03-04T08:18:58;101182.03;;;4.31;100.00
13968;BME280;39536;52.198;9.920;2023-03-04T08:21:40;101193.22;;;4.35;100.00
13968;BME280;39536;52.198;9.920;2023-03-04T08:27:11;101168.31;;;4.45;100.00
13968;BME280;39536;52.198;9.920;2023-03-04T08:29:37;101183.84;;;4.57;100.00
13968;BME280;39536;52.198;9.920;2023-03-04T08:32:04;101170.06;;;4.56;100.00
13968;BME280;39536;52.198;9.920;2023-03-04T08:34:31;101176.94;;;4.60;100.00
13968;BME280;39536;52.198;9.920;2023-03-04T08:36:57;101181.25;;;4.63;100.00
13968;BME280;39536;52.198;9.920;2023-03-04T08:39:23;101179.53;;;4.59;100.00
13968;BME280;39536;52.198;9.920;2023-03-04T08:41:50;101188.97;;;4.54;100.00
13968;BME280;39536;52.198;9.920;2023-03-04T08:44:18;101184.63;;;4.39;100.00
13968;BME280;39536;52.198;9.920;2023-03-04T08:46:45;101180.31;;;4.27;100.00
13968;BME280;39536;52.198;9.920;2023-03-04T08:49:11;101190.63;;;4.29;100.00
13968;BME280;39536;52.198;9.920;2023-03-04T08:51:38;101184.59;;;4.28;100.00
13968;BME280;39536;52.198;9.920;2023-03-04T08:54:05;101199.25;;;4.34;100.00
13968;BME280;39536;52.198;9.920;2023-03-04T08:56:31;101195.81;;;4.38;100.00
13968;BME280;39536;52.198;9.920;2023-03-04T08:58:58;101213.88;;;4.33;100.00
13968;BME280;39536;52.198;9.920;2023-03-04T09:01:26;101215.59;;;4.40;100.00
13968;BME280;39536;52.198;9.920;2023-03-04T09:03:52;101202.69;;;4.42;100.00
13968;BME280;39536;52.198;9.920;2023-03-04T09:06:19;101194.16;;;4.49;100.00
13968;BME280;39536;52.198;9.920;2023-03-04T09:08:45;101188.97;;;4.51;100.00
13968;BME280;39536;52.198;9.920;2023-03-04T09:11:12;101200.19;;;4.59;100.00
13968;BME280;39536;52.198;9.920;2023-03-04T09:13:39;101166.63;;;4.53;100.00
13968;BME280;39536;52.198;9.920;2023-03-04T09:16:08;101152.88;;;4.63;100.00
13968;BME280;39536;52.198;9.920;2023-03-04T09:18:37;101191.63;;;4.68;100.00
13968;BME280;39536;52.198;9.920;2023-03-04T09:21:04;101185.59;;;4.76;100.00
13968;BME280;39536;52.198;9.920;2023-03-04T09:23:31;101185.59;;;4.79;100.00
13968;BME280;39536;52.198;9.920;2023-03-04T09:25:57;101201.94;;;4.81;100.00
13968;BME280;39536;52.198;9.920;2023-03-04T09:28:24;101194.22;;;4.91;100.00
13968;BME280;39536;52.198;9.920;2023-03-04T09:30:50;101185.63;;;4.93;100.00
13968;BME280;39536;52.198;9.920;2023-03-04T09:33:17;101197.69;;;4.93;100.00
13968;BME280;39536;52.198;9.920;2023-03-04T09:35:45;101196.81;;;4.94;100.00
13968;BME280;39536;52.198;9.920;2023-03-04T09:38:13;101193.34;;;4.95;100.00
13968;BME280;39536;52.198;9.920;2023-03-04T09:40:41;101192.53;;;5.02;100.00
13968;BME280;39536;52.198;9.920;2023-03-04T09:43:15;101200.25;;;5.09;100.00
13968;BME280;39536;52.198;9.920;2023-03-04T09:45:47;101185.63;;;5.01;100.00
13968;BME280;39536;52.198;9.920;2023-03-04T09:48:16;101207.09;;;4.81;100.00
13968;BME280;39536;52.198;9.920;2023-03-04T09:50:56;101197.63;;;4.79;100.00
13968;BME280;39536;52.198;9.920;2023-03-04T09:53:32;101195.91;;;4.73;100.00
13968;BME280;39536;52.198;9.920;2023-03-04T09:56:01;101186.47;;;4.71;100.00
13968;BME280;39536;52.198;9.920;2023-03-04T09:58:41;101183.84;;;4.69;100.00
13968;BME280;39536;52.198;9.920;2023-03-04T10:01:13;101200.19;;;4.63;100.00
13968;BME280;39536;52.198;9.920;2023-03-04T10:03:44;101194.16;;;4.49;100.00
13968;BME280;39536;52.198;9.920;2023-03-04T10:06:15;101197.53;;;4.45;100.00
13968;BME280;39536;52.198;9.920;2023-03-04T10:08:46;101195.88;;;4.52;100.00
13968;BME280;39536;52.198;9.920;2023-03-04T10:11:17;101193.31;;;4.59;100.00
13968;BME280;39536;52.198;9.920;2023-03-04T10:13:59;101194.19;;;4.72;100.00
13968;BME280;39536;52.198;9.920;2023-03-04T10:16:30;101186.47;;;4.78;100.00
13968;BME280;39536;52.198;9.920;2023-03-04T10:19:02;101185.63;;;4.84;100.00
13968;BME280;39536;52.198;9.920;2023-03-04T10:21:41;101207.09;;;4.71;100.00
13968;BME280;39536;52.198;9.920;2023-03-04T10:24:10;101193.31;;;4.69;100.00
13968;BME280;39536;52.198;9.920;2023-03-04T10:26:38;101197.63;;;4.70;100.00
13968;BME280;39536;52.198;9.920;2023-03-04T10:29:08;101218.28;;;4.76;100.00
13968;BME280;39536;52.198;9.920;2023-03-04T10:31:39;101183.88;;;4.72;100.00
13968;BME280;39536;52.198;9.920;2023-03-04T10:34:09;101189.91;;;4.80;100.00
13968;BME280;39536;52.198;9.920;2023-03-04T10:36:52;101204.53;;;4.80;100.00
13968;BME280;39536;52.198;9.920;2023-03-04T10:39:23;101206.22;;;4.67;100.00
13968;BME280;39536;52.198;9.920;2023-03-04T10:41:55;101188.16;;;4.72;100.00
13968;BME280;39536;52.198;9.920;2023-03-04T10:44:22;101203.66;;;4.76;100.00
13968;BME280;39536;52.198;9.920;2023-03-04T10:46:49;101178.72;;;4.80;100.00
13968;BME280;39536;52.198;9.920;2023-03-04T10:49:19;101187.34;;;4.93;100.00
13968;BME280;39536;52.198;9.920;2023-03-04T10:51:48;101189.06;;;4.94;100.00
13968;BME280;39536;52.198;9.920;2023-03-04T10:54:22;101175.28;;;5.07;100.00
13968;BME280;39536;52.198;9.920;2023-03-04T10:56:55;101189.94;;;5.20;100.00
13968;BME280;39536;52.198;9.920;2023-03-04T10:59:39;101158.94;;;5.19;100.00
13968;BME280;39536;52.198;9.920;2023-03-04T11:02:20;101159.81;;;5.36;100.00
13968;BME280;39536;52.198;9.920;2023-03-04T11:04:53;101149.44;;;5.56;100.00
13968;BME280;39536;52.198;9.920;2023-03-04T11:07:23;101141.66;;;5.65;100.00
13968;BME280;39536;52.198;9.920;2023-03-04T11:09:50;101162.31;;;5.70;100.00
13968;BME280;39536;52.198;9.920;2023-03-04T11:12:19;101150.25;;;5.70;100.00
13968;BME280;39536;52.198;9.920;2023-03-04T11:14:47;101140.72;;;5.82;100.00
13968;BME280;39536;52.198;9.920;2023-03-04T11:17:21;101155.41;;;5.86;100.00
13968;BME280;39536;52.198;9.920;2023-03-04T11:19:53;101168.31;;;5.83;100.00
13968;BME280;39536;52.198;9.920;2023-03-04T11:22:26;101167.47;;;5.71;100.00
13968;BME280;39536;52.198;9.920;2023-03-04T11:24:58;101129.59;;;5.70;100.00
13968;BME280;39536;52.198;9.920;2023-03-04T11:27:38;101144.25;;;5.62;100.00
13968;BME280;39536;52.198;9.920;2023-03-04T11:30:18;101158.88;;;5.74;100.00
13968;BME280;39536;52.198;9.920;2023-03-04T11:32:48;101139.91;;;5.75;100.00
13968;BME280;39536;52.198;9.920;2023-03-04T11:35:22;101143.38;;;5.71;100.00
13968;BME280;39536;52.198;9.920;2023-03-04T11:37:56;101128.66;;;5.79;100.00
13968;BME280;39536;52.198;9.920;2023-03-04T11:40:29;101138.13;;;5.89;100.00
13968;BME280;39536;52.198;9.920;2023-03-04T11:43:02;101144.91;;;6.19;100.00
13968;BME280;39536;52.198;9.920;2023-03-04T11:45:43;101148.28;;;6.35;100.00
13968;BME280;39536;52.198;9.920;2023-03-04T11:48:22;101156.97;;;6.30;100.00
13968;BME280;39536;52.198;9.920;2023-03-04T11:50:53;101129.31;;;6.36;100.00
13968;BME280;39536;52.198;9.920;2023-03-04T11:53:34;101140.56;;;6.28;100.00
13968;BME280;39536;52.198;9.920;2023-03-04T11:56:13;101119.94;;;6.18;100.00
13968;BME280;39536;52.198;9.920;2023-03-04T11:59:10;101118.31;;;5.90;100.00
13968;BME280;39536;52.198;9.920;2023-03-04T12:01:48;101127.81;;;5.82;100.00
13968;BME280;39536;52.198;9.920;2023-03-04T12:04:32;101129.56;;;5.78;100.00
13968;BME280;39536;52.198;9.920;2023-03-04T12:07:28;101131.22;;;5.85;100.00
13968;BME280;39536;52.198;9.920;2023-03-04T12:10:11;101131.28;;;5.81;100.00
13968;BME280;39536;52.198;9.920;2023-03-04T12:12:57;101128.69;;;5.77;100.00
13968;BME280;39536;52.198;9.920;2023-03-04T12:15:30;101109.72;;;5.82;100.00
13968;BME280;39536;52.198;9.920;2023-03-04T12:18:17;101114.88;;;5.89;100.00
13968;BME280;39536;52.198;9.920;2023-03-04T12:20:55;101105.34;;;6.04;100.00
13968;BME280;39536;52.198;9.920;2023-03-04T12:23:37;101112.13;;;6.26;100.00
13968;BME280;39536;52.198;9.920;2023-03-04T12:26:21;101084.50;;;6.31;100.00
13968;BME280;39536;52.198;9.920;2023-03-04T12:28:56;101093.94;;;6.40;100.00
13968;BME280;39536;52.198;9.920;2023-03-04T12:31:35;101098.41;;;6.07;100.00
13968;BME280;39536;52.198;9.920;2023-03-04T12:34:24;101104.47;;;6.06;100.00
13968;BME280;39536;52.198;9.920;2023-03-04T12:37:03;101095.03;;;5.85;100.00
13968;BME280;39536;52.198;9.920;2023-03-04T12:39:39;101125.25;;;5.72;100.00
13968;BME280;39536;52.198;9.920;2023-03-04T12:42:16;101105.50;;;5.53;100.00
13968;BME280;39536;52.198;9.920;2023-03-04T12:44:47;101077.94;;;5.58;100.00
13968;BME280;39536;52.198;9.920;2023-03-04T12:47:28;101091.69;;;5.65;100.00
13968;BME280;39536;52.198;9.920;2023-03-04T12:50:17;101085.63;;;5.72;100.00
13968;BME280;39536;52.198;9.920;2023-03-04T12:52:57;101093.41;;;5.70;100.00
13968;BME280;39536;52.198;9.920;2023-03-04T12:55:35;101089.94;;;5.71;100.00
13968;BME280;39536;52.198;9.920;2023-03-04T12:58:04;101077.03;;;5.68;100.00
13968;BME280;39536;52.198;9.920;2023-03-04T13:00:43;101071.88;;;5.62;100.00
13968;BME280;39536;52.198;9.920;2023-03-04T13:03:16;101076.19;;;5.68;100.00